createdAt,value
2018-03-14T00:00:59.472Z,0
2018-03-14T00:02:01.084Z,0
2018-03-14T00:03:02.691Z,0
2018-03-14T00:04:04.305Z,0
2018-03-14T00:05:05.911Z,0
2018-03-14T00:06:07.519Z,0
2018-03-14T00:07:09.135Z,0
2018-03-14T00:08:10.749Z,0
2018-03-14T00:09:12.354Z,0
2018-03-14T00:10:13.963Z,0
2018-03-14T00:11:15.574Z,0
2018-03-14T00:12:17.183Z,0
2018-03-14T00:13:18.789Z,0
2018-03-14T00:14:20.398Z,0
2018-03-14T00:15:22.018Z,0
2018-03-14T00:16:23.625Z,0
2018-03-14T00:17:25.235Z,0
2018-03-14T00:18:26.843Z,0
2018-03-14T00:19:28.459Z,0
2018-03-14T00:20:30.066Z,0
2018-03-14T00:21:31.677Z,0
2018-03-14T00:22:33.287Z,0
2018-03-14T00:23:34.899Z,0
2018-03-14T00:24:36.511Z,0
2018-03-14T00:25:38.114Z,0
2018-03-14T00:26:39.731Z,0
2018-03-14T00:27:41.331Z,0
2018-03-14T00:28:42.939Z,0
2018-03-14T00:29:44.550Z,0
2018-03-14T00:30:46.156Z,0
2018-03-14T00:31:47.777Z,0
2018-03-14T00:32:49.372Z,0
2018-03-14T00:33:50.986Z,0
2018-03-14T00:34:52.591Z,0
2018-03-14T00:35:54.203Z,0
2018-03-14T00:36:55.819Z,0
2018-03-14T00:37:57.428Z,0
2018-03-14T00:38:59.048Z,0
2018-03-14T00:40:00.652Z,0
2018-03-14T00:41:02.263Z,0
2018-03-14T00:42:03.867Z,0
2018-03-14T00:43:05.474Z,0
2018-03-14T00:44:07.087Z,0
2018-03-14T00:45:08.698Z,0
2018-03-14T00:46:10.306Z,0
2018-03-14T00:47:11.917Z,0
2018-03-14T00:48:13.523Z,0
2018-03-14T00:49:15.137Z,0
2018-03-14T00:50:16.744Z,0
2018-03-14T00:51:18.359Z,0
2018-03-14T00:52:19.966Z,0
2018-03-14T00:53:21.580Z,0
2018-03-14T00:54:23.187Z,0
2018-03-14T00:55:24.841Z,0
2018-03-14T00:56:26.407Z,0
2018-03-14T00:57:28.018Z,0
2018-03-14T00:58:29.623Z,0
2018-03-14T00:59:31.233Z,0
2018-03-14T01:00:32.844Z,0
2018-03-14T01:01:34.449Z,0
2018-03-14T01:02:36.061Z,0
2018-03-14T01:03:37.671Z,0
2018-03-14T01:04:39.278Z,0
2018-03-14T01:05:40.884Z,0
2018-03-14T01:06:42.497Z,0
2018-03-14T01:07:44.108Z,0
2018-03-14T01:08:45.714Z,0
2018-03-14T01:09:47.322Z,0
2018-03-14T01:10:48.935Z,0
2018-03-14T01:11:50.543Z,0
2018-03-14T01:12:52.155Z,0
2018-03-14T01:13:53.762Z,0
2018-03-14T01:14:55.378Z,0
2018-03-14T01:15:56.982Z,0
2018-03-14T01:16:58.598Z,0
2018-03-14T01:18:00.203Z,0
2018-03-14T01:19:01.820Z,0
2018-03-14T01:20:03.417Z,0
2018-03-14T01:21:05.032Z,0
2018-03-14T01:22:07.246Z,0
2018-03-14T01:23:08.849Z,0
2018-03-14T01:24:10.457Z,0
2018-03-14T01:25:12.070Z,0
2018-03-14T01:26:13.676Z,0
2018-03-14T01:27:15.291Z,0
2018-03-14T01:28:16.903Z,0
2018-03-14T01:29:18.510Z,0
2018-03-14T01:30:20.113Z,0
2018-03-14T01:31:21.728Z,0
2018-03-14T01:32:23.338Z,0
2018-03-14T01:33:24.944Z,0
2018-03-14T01:34:26.559Z,0
2018-03-14T01:35:28.167Z,0
2018-03-14T01:36:29.773Z,0
2018-03-14T01:37:31.384Z,0
2018-03-14T01:38:33.490Z,0
2018-03-14T01:39:35.099Z,0
2018-03-14T01:40:36.711Z,0
2018-03-14T01:41:38.322Z,0
2018-03-14T01:42:39.932Z,0
2018-03-14T01:43:41.538Z,0
2018-03-14T01:44:43.143Z,0
2018-03-14T01:45:44.757Z,0
2018-03-14T01:46:46.365Z,0
2018-03-14T01:47:47.972Z,0
2018-03-14T01:48:49.581Z,0
2018-03-14T01:49:51.196Z,0
2018-03-14T01:50:52.802Z,0
2018-03-14T01:51:54.411Z,0
2018-03-14T01:52:56.021Z,0
2018-03-14T01:53:57.628Z,0
2018-03-14T01:54:59.236Z,0
2018-03-14T01:56:00.843Z,0
2018-03-14T01:57:02.454Z,0
2018-03-14T01:58:05.007Z,0
2018-03-14T01:59:06.619Z,0
2018-03-14T02:00:08.226Z,0
2018-03-14T02:15:04.217Z,0
2018-03-14T02:16:05.820Z,0
2018-03-14T02:17:57.503Z,0
2018-03-14T02:18:59.110Z,0
2018-03-14T02:20:51.762Z,0
2018-03-14T02:21:53.374Z,0
2018-03-14T02:23:45.060Z,0
2018-03-14T02:24:46.666Z,0
2018-03-14T02:26:38.371Z,0
2018-03-14T02:27:39.979Z,0
2018-03-14T02:29:31.681Z,0
2018-03-14T02:30:33.292Z,0
2018-03-14T02:32:24.974Z,0
2018-03-14T02:33:26.580Z,0
2018-03-14T02:35:18.288Z,0
2018-03-14T02:36:19.898Z,0
2018-03-14T02:38:12.336Z,0
2018-03-14T02:39:13.938Z,0
2018-03-14T02:41:05.640Z,0
2018-03-14T02:42:07.247Z,0
2018-03-14T02:43:58.935Z,0
2018-03-14T02:45:00.540Z,0
2018-03-14T02:46:52.237Z,0
2018-03-14T02:47:53.847Z,0
2018-03-14T02:49:45.545Z,0
2018-03-14T02:50:47.152Z,0
2018-03-14T02:52:38.835Z,0
2018-03-14T02:53:40.443Z,0
2018-03-14T02:55:32.147Z,0
2018-03-14T02:56:33.759Z,0
2018-03-14T02:58:25.440Z,0
2018-03-14T02:59:27.055Z,0
2018-03-14T03:01:18.758Z,0
2018-03-14T03:02:20.366Z,0
2018-03-14T03:04:12.053Z,0
2018-03-14T03:05:13.656Z,0
2018-03-14T03:07:05.364Z,0
2018-03-14T03:08:06.968Z,0
2018-03-14T03:09:58.676Z,0
2018-03-14T03:11:00.284Z,0
2018-03-14T03:12:52.015Z,0
2018-03-14T03:13:53.580Z,0
2018-03-14T03:15:45.280Z,0
2018-03-14T03:16:46.895Z,0
2018-03-14T03:18:39.334Z,0
2018-03-14T03:19:40.944Z,0
2018-03-14T03:21:32.645Z,0
2018-03-14T03:22:34.249Z,0
2018-03-14T03:24:25.931Z,0
2018-03-14T03:25:27.545Z,0
2018-03-14T03:27:19.253Z,0
2018-03-14T03:28:20.862Z,0
2018-03-14T03:30:12.561Z,0
2018-03-14T03:31:14.167Z,0
2018-03-14T03:33:05.859Z,0
2018-03-14T03:34:07.465Z,0
2018-03-14T03:35:59.162Z,0
2018-03-14T03:37:00.773Z,0
2018-03-14T03:38:52.462Z,0
2018-03-14T03:39:54.061Z,0
2018-03-14T03:41:45.760Z,0
2018-03-14T03:42:47.373Z,0
2018-03-14T03:44:39.077Z,0
2018-03-14T03:45:40.687Z,0
2018-03-14T03:47:32.381Z,0
2018-03-14T03:48:33.984Z,0
2018-03-14T03:50:26.544Z,0
2018-03-14T03:51:28.142Z,0
2018-03-14T03:53:19.824Z,0
2018-03-14T03:54:21.440Z,0
2018-03-14T03:56:13.140Z,0
2018-03-14T03:57:14.744Z,0
2018-03-14T03:59:06.430Z,0
2018-03-14T04:00:08.036Z,0
2018-03-14T04:01:59.741Z,0
2018-03-14T04:03:01.346Z,0
2018-03-14T04:04:53.051Z,0
2018-03-14T04:05:54.657Z,0
2018-03-14T04:07:46.348Z,0
2018-03-14T04:08:47.952Z,0
2018-03-14T04:10:39.659Z,0
2018-03-14T04:11:41.262Z,0
2018-03-14T04:13:32.948Z,0
2018-03-14T04:14:34.589Z,0
2018-03-14T04:16:26.265Z,0
2018-03-14T04:17:27.875Z,0
2018-03-14T04:19:19.564Z,0
2018-03-14T04:20:21.173Z,0
2018-03-14T04:22:12.872Z,0
2018-03-14T04:23:14.480Z,0
2018-03-14T04:25:06.181Z,0
2018-03-14T04:26:07.795Z,0
2018-03-14T04:27:59.484Z,0
2018-03-14T04:29:02.027Z,0
2018-03-14T04:30:53.730Z,0
2018-03-14T04:31:55.338Z,0
2018-03-14T04:33:47.027Z,0
2018-03-14T04:34:48.633Z,0
2018-03-14T04:36:41.357Z,0
2018-03-14T04:37:42.952Z,0
2018-03-14T04:39:34.660Z,0
2018-03-14T04:40:36.262Z,0
2018-03-14T04:42:27.947Z,0
2018-03-14T04:43:29.553Z,0
2018-03-14T04:45:21.254Z,0
2018-03-14T04:46:22.858Z,0
2018-03-14T04:48:15.252Z,0
2018-03-14T04:49:16.859Z,0
2018-03-14T04:51:08.560Z,0
2018-03-14T04:52:10.170Z,0
2018-03-14T04:54:01.858Z,0
2018-03-14T04:55:03.465Z,0
2018-03-14T04:56:55.168Z,0
2018-03-14T04:57:56.775Z,0
2018-03-14T04:59:48.475Z,0
2018-03-14T05:00:50.088Z,0
2018-03-14T05:02:41.770Z,0
2018-03-14T05:03:43.382Z,0
2018-03-14T05:05:35.927Z,0
2018-03-14T05:06:37.536Z,0
2018-03-14T05:08:29.223Z,0
2018-03-14T05:09:30.827Z,0
2018-03-14T05:11:22.528Z,0
2018-03-14T05:12:24.986Z,0
2018-03-14T05:14:16.804Z,0
2018-03-14T05:15:18.367Z,0
2018-03-14T05:17:10.071Z,0
2018-03-14T05:18:11.685Z,0
2018-03-14T05:20:03.386Z,0
2018-03-14T05:21:04.999Z,0
2018-03-14T05:22:56.678Z,0
2018-03-14T05:23:58.289Z,0
2018-03-14T05:25:49.990Z,0
2018-03-14T05:26:51.602Z,0
2018-03-14T05:28:43.287Z,0
2018-03-14T05:29:44.899Z,0
2018-03-14T05:31:36.603Z,0
2018-03-14T05:32:38.210Z,0
2018-03-14T05:34:29.909Z,0
2018-03-14T05:35:31.517Z,0
2018-03-14T05:37:23.222Z,0
2018-03-14T05:38:24.832Z,0
2018-03-14T05:40:16.542Z,0
2018-03-14T05:41:18.146Z,0
2018-03-14T05:43:10.490Z,0
2018-03-14T05:44:12.095Z,0
2018-03-14T05:46:03.797Z,0
2018-03-14T05:47:05.409Z,0
2018-03-14T05:48:57.094Z,0
2018-03-14T05:49:58.701Z,0
2018-03-14T05:51:50.407Z,0
2018-03-14T05:52:52.017Z,0
2018-03-14T05:54:44.449Z,0
2018-03-14T05:55:46.063Z,0
2018-03-14T05:57:37.749Z,0
2018-03-14T05:58:39.359Z,0
2018-03-14T06:00:31.057Z,5
2018-03-14T06:01:32.675Z,5
2018-03-14T06:03:24.358Z,5
2018-03-14T06:04:25.971Z,5
2018-03-14T06:06:17.676Z,5
2018-03-14T06:07:19.282Z,11
2018-03-14T06:09:10.973Z,11
2018-03-14T06:10:12.582Z,11
2018-03-14T06:12:05.134Z,11
2018-03-14T06:13:06.803Z,11
2018-03-14T06:14:58.459Z,11
2018-03-14T06:16:00.075Z,16
2018-03-14T06:17:51.761Z,22
2018-03-14T06:18:53.378Z,22
2018-03-14T06:20:45.083Z,22
2018-03-14T06:21:46.691Z,28
2018-03-14T06:23:38.384Z,22
2018-03-14T06:24:39.992Z,22
2018-03-14T06:26:31.709Z,22
2018-03-14T06:27:33.316Z,22
2018-03-14T06:29:25.007Z,28
2018-03-14T06:30:26.616Z,28
2018-03-14T06:32:18.326Z,33
2018-03-14T06:33:19.933Z,39
2018-03-14T06:35:11.646Z,50
2018-03-14T06:36:13.248Z,50
2018-03-14T06:38:05.691Z,45
2018-03-14T06:39:07.303Z,39
2018-03-14T06:40:59.002Z,39
2018-03-14T06:42:00.614Z,39
2018-03-14T06:43:52.305Z,45
2018-03-14T06:44:53.914Z,45
2018-03-14T06:46:45.618Z,50
2018-03-14T06:47:47.232Z,50
2018-03-14T06:49:38.937Z,56
2018-03-14T06:50:40.546Z,61
2018-03-14T06:52:32.732Z,73
2018-03-14T06:53:34.345Z,73
2018-03-14T06:54:35.952Z,78
2018-03-14T06:55:37.563Z,84
2018-03-14T06:56:39.180Z,95
2018-03-14T06:57:40.807Z,95
2018-03-14T06:58:42.420Z,101
2018-03-14T06:59:44.034Z,101
2018-03-14T07:00:45.651Z,95
2018-03-14T07:01:47.266Z,95
2018-03-14T07:02:48.874Z,95
2018-03-14T07:03:50.490Z,95
2018-03-14T07:04:52.115Z,101
2018-03-14T07:05:53.726Z,106
2018-03-14T07:06:55.337Z,106
2018-03-14T07:07:56.956Z,106
2018-03-14T07:08:58.565Z,106
2018-03-14T07:10:00.178Z,112
2018-03-14T07:11:01.796Z,112
2018-03-14T07:12:03.421Z,112
2018-03-14T07:13:05.030Z,112
2018-03-14T07:14:06.646Z,123
2018-03-14T07:15:08.263Z,123
2018-03-14T07:16:09.879Z,129
2018-03-14T07:17:11.490Z,129
2018-03-14T07:18:13.106Z,129
2018-03-14T07:19:14.723Z,135
2018-03-14T07:20:16.339Z,140
2018-03-14T07:21:17.953Z,146
2018-03-14T07:22:19.565Z,151
2018-03-14T07:23:21.184Z,157
2018-03-14T07:24:22.803Z,163
2018-03-14T07:25:24.412Z,174
2018-03-14T07:26:26.033Z,180
2018-03-14T07:27:27.646Z,196
2018-03-14T07:28:29.267Z,208
2018-03-14T07:29:30.872Z,213
2018-03-14T07:30:32.489Z,219
2018-03-14T07:31:34.101Z,230
2018-03-14T07:32:35.721Z,241
2018-03-14T07:33:37.333Z,253
2018-03-14T07:34:38.957Z,270
2018-03-14T07:35:40.568Z,286
2018-03-14T07:36:42.187Z,286
2018-03-14T07:37:43.796Z,286
2018-03-14T07:38:45.416Z,292
2018-03-14T07:39:47.027Z,303
2018-03-14T07:40:48.640Z,309
2018-03-14T07:41:50.262Z,337
2018-03-14T07:42:51.880Z,360
2018-03-14T07:43:53.493Z,393
2018-03-14T07:44:55.107Z,421
2018-03-14T07:45:56.724Z,455
2018-03-14T07:46:58.337Z,472
2018-03-14T07:47:59.958Z,478
2018-03-14T07:49:01.568Z,461
2018-03-14T07:50:03.190Z,461
2018-03-14T07:51:04.801Z,483
2018-03-14T07:52:06.420Z,562
2018-03-14T07:53:08.898Z,635
2018-03-14T07:54:10.519Z,680
2018-03-14T07:55:12.151Z,703
2018-03-14T07:56:13.752Z,686
2018-03-14T07:57:15.370Z,663
2018-03-14T07:58:16.984Z,686
2018-03-14T07:59:18.598Z,753
2018-03-14T08:00:20.219Z,742
2018-03-14T08:01:21.833Z,871
2018-03-14T08:02:23.448Z,686
2018-03-14T08:03:25.066Z,652
2018-03-14T08:04:26.689Z,675
2018-03-14T08:05:28.299Z,624
2018-03-14T08:06:29.920Z,596
2018-03-14T08:07:31.537Z,579
2018-03-14T08:08:33.151Z,573
2018-03-14T08:09:34.769Z,568
2018-03-14T08:10:36.394Z,579
2018-03-14T08:11:38.010Z,585
2018-03-14T08:12:39.620Z,596
2018-03-14T08:13:41.411Z,562
2018-03-14T08:14:42.862Z,517
2018-03-14T08:15:44.472Z,495
2018-03-14T08:16:46.089Z,495
2018-03-14T08:17:47.714Z,511
2018-03-14T08:18:49.329Z,556
2018-03-14T08:19:50.951Z,601
2018-03-14T08:20:52.560Z,630
2018-03-14T08:21:54.182Z,646
2018-03-14T08:22:55.796Z,635
2018-03-14T08:23:57.409Z,579
2018-03-14T08:24:59.033Z,528
2018-03-14T08:26:00.700Z,528
2018-03-14T08:27:02.264Z,506
2018-03-14T08:28:03.876Z,517
2018-03-14T08:29:05.658Z,596
2018-03-14T08:30:07.280Z,742
2018-03-14T08:31:08.894Z,680
2018-03-14T08:32:10.508Z,652
2018-03-14T08:33:12.135Z,641
2018-03-14T08:34:13.741Z,680
2018-03-14T08:35:15.431Z,810
2018-03-14T08:36:17.045Z,1434
2018-03-14T08:37:18.671Z,2345
2018-03-14T08:38:20.294Z,736
2018-03-14T08:39:21.913Z,759
2018-03-14T08:40:23.540Z,1760
2018-03-14T08:41:25.156Z,1198
2018-03-14T08:42:26.780Z,1732
2018-03-14T08:43:28.396Z,2902
2018-03-14T08:44:30.026Z,787
2018-03-14T08:45:31.637Z,826
2018-03-14T08:46:33.262Z,916
2018-03-14T08:47:34.881Z,956
2018-03-14T08:48:38.939Z,866
2018-03-14T08:49:40.502Z,753
2018-03-14T08:50:42.124Z,776
2018-03-14T08:51:43.742Z,866
2018-03-14T08:52:45.361Z,849
2018-03-14T08:53:46.986Z,838
2018-03-14T08:54:48.605Z,843
2018-03-14T08:55:50.277Z,832
2018-03-14T08:56:51.844Z,826
2018-03-14T08:57:53.465Z,855
2018-03-14T08:58:55.081Z,849
2018-03-14T08:59:56.712Z,815
2018-03-14T09:00:58.325Z,759
2018-03-14T09:01:59.950Z,826
2018-03-14T09:03:01.572Z,635
2018-03-14T09:04:03.182Z,534
2018-03-14T09:05:04.824Z,562
2018-03-14T09:06:06.443Z,652
2018-03-14T09:07:08.082Z,691
2018-03-14T09:08:09.703Z,624
2018-03-14T09:09:11.319Z,517
2018-03-14T09:10:12.943Z,489
2018-03-14T09:11:14.556Z,478
2018-03-14T09:12:16.179Z,466
2018-03-14T09:13:17.798Z,450
2018-03-14T09:14:19.416Z,483
2018-03-14T09:15:21.037Z,517
2018-03-14T09:16:22.662Z,556
2018-03-14T09:17:24.296Z,680
2018-03-14T09:18:27.775Z,849
2018-03-14T09:19:29.359Z,1068
2018-03-14T09:20:30.977Z,1243
2018-03-14T09:21:32.705Z,3830
2018-03-14T09:22:34.360Z,2345
2018-03-14T09:23:36.014Z,1912
2018-03-14T09:24:37.632Z,1108
2018-03-14T09:25:39.262Z,1220
2018-03-14T09:26:40.887Z,1119
2018-03-14T09:27:42.506Z,1299
2018-03-14T09:28:44.125Z,1085
2018-03-14T09:29:45.749Z,1108
2018-03-14T09:30:47.372Z,1220
2018-03-14T09:31:49.009Z,1434
2018-03-14T09:32:50.610Z,1366
2018-03-14T09:33:52.791Z,1035
2018-03-14T09:34:54.416Z,753
2018-03-14T09:35:56.037Z,556
2018-03-14T09:36:57.659Z,495
2018-03-14T09:37:59.277Z,500
2018-03-14T09:39:00.904Z,556
2018-03-14T09:40:02.514Z,641
2018-03-14T09:41:04.138Z,731
2018-03-14T09:42:05.758Z,770
2018-03-14T09:43:07.384Z,781
2018-03-14T09:44:09.008Z,883
2018-03-14T09:45:10.628Z,3105
2018-03-14T09:46:12.256Z,2683
2018-03-14T09:47:13.869Z,635
2018-03-14T09:48:15.496Z,585
2018-03-14T09:49:17.111Z,601
2018-03-14T09:50:18.737Z,579
2018-03-14T09:51:20.356Z,540
2018-03-14T09:52:21.979Z,483
2018-03-14T09:53:23.595Z,461
2018-03-14T09:54:25.215Z,433
2018-03-14T09:55:26.839Z,438
2018-03-14T09:56:28.464Z,433
2018-03-14T09:57:30.080Z,405
2018-03-14T09:58:31.701Z,382
2018-03-14T09:59:33.327Z,371
2018-03-14T10:00:34.945Z,382
2018-03-14T10:01:36.566Z,421
2018-03-14T10:02:38.184Z,444
2018-03-14T10:03:39.809Z,506
2018-03-14T10:04:41.439Z,545
2018-03-14T10:05:43.068Z,534
2018-03-14T10:06:44.684Z,523
2018-03-14T10:07:46.305Z,523
2018-03-14T10:08:47.925Z,540
2018-03-14T10:09:49.546Z,545
2018-03-14T10:10:51.161Z,534
2018-03-14T10:11:52.787Z,545
2018-03-14T10:12:54.407Z,596
2018-03-14T10:13:56.092Z,658
2018-03-14T10:14:57.710Z,759
2018-03-14T10:15:59.333Z,821
2018-03-14T10:17:00.961Z,821
2018-03-14T10:18:02.574Z,815
2018-03-14T10:19:04.263Z,849
2018-03-14T10:20:05.858Z,945
2018-03-14T10:21:07.484Z,1074
2018-03-14T10:22:09.100Z,1513
2018-03-14T10:23:10.722Z,3594
2018-03-14T10:24:12.347Z,2925
2018-03-14T10:25:13.965Z,4269
2018-03-14T10:26:15.593Z,4477
2018-03-14T10:27:17.216Z,1563
2018-03-14T10:28:18.840Z,1316
2018-03-14T10:29:20.478Z,1226
2018-03-14T10:30:22.096Z,1220
2018-03-14T10:31:23.724Z,1192
2018-03-14T10:32:25.345Z,1220
2018-03-14T10:33:26.972Z,1243
2018-03-14T10:34:28.591Z,4488
2018-03-14T10:35:30.223Z,2739
2018-03-14T10:36:31.847Z,4185
2018-03-14T10:37:33.468Z,4410
2018-03-14T10:38:35.096Z,3802
2018-03-14T10:39:36.749Z,4550
2018-03-14T10:40:38.372Z,4477
2018-03-14T10:41:40.006Z,4218
2018-03-14T10:42:41.628Z,4646
2018-03-14T10:43:43.255Z,4426
2018-03-14T10:44:44.885Z,1676
2018-03-14T10:45:46.507Z,2002
2018-03-14T10:46:48.140Z,1215
2018-03-14T10:47:49.767Z,1080
2018-03-14T10:48:51.401Z,1001
2018-03-14T10:49:53.025Z,928
2018-03-14T10:50:54.656Z,1074
2018-03-14T10:51:56.283Z,1029
2018-03-14T10:52:57.913Z,1018
2018-03-14T10:53:59.538Z,843
2018-03-14T10:55:01.173Z,708
2018-03-14T10:56:02.801Z,663
2018-03-14T10:57:04.423Z,618
2018-03-14T10:58:06.042Z,607
2018-03-14T10:59:07.675Z,658
2018-03-14T11:00:09.296Z,866
2018-03-14T11:01:10.923Z,945
2018-03-14T11:02:12.554Z,945
2018-03-14T11:03:14.176Z,950
2018-03-14T11:04:15.802Z,973
2018-03-14T11:05:17.427Z,939
2018-03-14T11:06:19.054Z,928
2018-03-14T11:07:20.675Z,1158
2018-03-14T11:08:22.300Z,2244
2018-03-14T11:09:23.931Z,1445
2018-03-14T11:10:25.556Z,3465
2018-03-14T11:11:27.182Z,2328
2018-03-14T11:12:28.803Z,2700
2018-03-14T11:13:30.436Z,1738
2018-03-14T11:14:33.015Z,2868
2018-03-14T11:15:34.661Z,2660
2018-03-14T11:16:36.267Z,2120
2018-03-14T11:17:37.897Z,2806
2018-03-14T11:18:39.532Z,1170
2018-03-14T11:19:41.180Z,956
2018-03-14T11:20:42.799Z,1006
2018-03-14T11:21:44.428Z,1186
2018-03-14T11:22:46.049Z,1614
2018-03-14T11:23:47.682Z,2148
2018-03-14T11:24:49.311Z,1411
2018-03-14T11:25:50.934Z,1366
2018-03-14T11:26:52.557Z,1366
2018-03-14T11:27:54.184Z,1760
2018-03-14T11:28:55.811Z,3240
2018-03-14T11:29:58.079Z,3532
2018-03-14T11:30:59.702Z,4089
2018-03-14T11:32:01.335Z,4156
2018-03-14T11:33:02.958Z,3391
2018-03-14T11:34:04.583Z,1715
2018-03-14T11:35:06.214Z,1603
2018-03-14T11:36:07.835Z,1693
2018-03-14T11:37:09.463Z,1704
2018-03-14T11:38:11.090Z,3206
2018-03-14T11:39:12.721Z,793
2018-03-14T11:40:14.347Z,2351
2018-03-14T11:41:15.973Z,1417
2018-03-14T11:42:17.666Z,1451
2018-03-14T11:43:19.265Z,1383
2018-03-14T11:44:20.889Z,1816
2018-03-14T11:45:22.516Z,1434
2018-03-14T11:46:24.770Z,1310
2018-03-14T11:47:26.401Z,3324
2018-03-14T11:48:28.023Z,3757
2018-03-14T11:49:29.653Z,3898
2018-03-14T11:50:31.280Z,1451
2018-03-14T11:51:33.376Z,1473
2018-03-14T11:52:35.023Z,1473
2018-03-14T11:53:36.692Z,1327
2018-03-14T11:54:38.306Z,1305
2018-03-14T11:55:39.939Z,1226
2018-03-14T11:56:41.566Z,1063
2018-03-14T11:57:43.188Z,3510
2018-03-14T11:58:44.818Z,3532
2018-03-14T11:59:46.446Z,3661
2018-03-14T12:00:48.071Z,3774
2018-03-14T12:01:49.696Z,3712
2018-03-14T12:02:51.327Z,3600
2018-03-14T12:03:52.950Z,3600
2018-03-14T12:04:54.573Z,3251
2018-03-14T12:05:56.199Z,2390
2018-03-14T12:06:57.822Z,1800
2018-03-14T12:07:59.456Z,2756
2018-03-14T12:09:01.085Z,1552
2018-03-14T12:10:02.706Z,1361
2018-03-14T12:11:04.333Z,2244
2018-03-14T12:12:05.962Z,2863
2018-03-14T12:13:07.585Z,1203
2018-03-14T12:14:09.217Z,967
2018-03-14T12:15:10.845Z,2896
2018-03-14T12:16:12.474Z,826
2018-03-14T12:17:14.093Z,3273
2018-03-14T12:18:15.723Z,2013
2018-03-14T12:19:17.343Z,2958
2018-03-14T12:20:18.973Z,1316
2018-03-14T12:21:20.595Z,3150
2018-03-14T12:22:22.221Z,3178
2018-03-14T12:23:23.844Z,3127
2018-03-14T12:24:25.477Z,2401
2018-03-14T12:25:27.103Z,3037
2018-03-14T12:26:28.726Z,2964
2018-03-14T12:27:30.355Z,3003
2018-03-14T12:28:31.980Z,2795
2018-03-14T12:29:33.602Z,1811
2018-03-14T12:30:35.230Z,995
2018-03-14T12:31:36.854Z,1113
2018-03-14T12:32:38.483Z,1046
2018-03-14T12:33:40.100Z,950
2018-03-14T12:34:41.786Z,843
2018-03-14T12:35:43.382Z,748
2018-03-14T12:36:45.003Z,736
2018-03-14T12:37:46.626Z,556
2018-03-14T12:38:48.244Z,579
2018-03-14T12:39:49.868Z,590
2018-03-14T12:40:51.494Z,697
2018-03-14T12:41:53.113Z,511
2018-03-14T12:42:54.737Z,472
2018-03-14T12:43:56.364Z,466
2018-03-14T12:44:57.986Z,472
2018-03-14T12:45:59.610Z,455
2018-03-14T12:47:01.227Z,421
2018-03-14T12:48:02.853Z,433
2018-03-14T12:49:04.472Z,523
2018-03-14T12:50:06.098Z,545
2018-03-14T12:51:07.719Z,540
2018-03-14T12:52:09.346Z,540
2018-03-14T12:53:10.972Z,573
2018-03-14T12:54:12.593Z,635
2018-03-14T12:55:14.213Z,652
2018-03-14T12:56:15.855Z,624
2018-03-14T12:57:17.461Z,596
2018-03-14T12:58:19.089Z,669
2018-03-14T12:59:20.711Z,618
2018-03-14T13:00:22.329Z,511
2018-03-14T13:01:23.953Z,483
2018-03-14T13:02:25.618Z,461
2018-03-14T13:03:27.200Z,461
2018-03-14T13:04:28.820Z,461
2018-03-14T13:05:30.448Z,506
2018-03-14T13:06:32.071Z,545
2018-03-14T13:07:33.691Z,551
2018-03-14T13:08:35.310Z,540
2018-03-14T13:09:36.933Z,455
2018-03-14T13:10:38.556Z,511
2018-03-14T13:11:40.189Z,506
2018-03-14T13:12:41.797Z,506
2018-03-14T13:13:43.426Z,517
2018-03-14T13:14:45.045Z,528
2018-03-14T13:15:46.664Z,770
2018-03-14T13:16:48.288Z,916
2018-03-14T13:17:49.914Z,916
2018-03-14T13:18:51.532Z,714
2018-03-14T13:19:53.156Z,669
2018-03-14T13:20:54.778Z,641
2018-03-14T13:21:56.399Z,613
2018-03-14T13:22:58.018Z,568
2018-03-14T13:23:59.635Z,551
2018-03-14T13:25:01.261Z,472
2018-03-14T13:26:02.885Z,506
2018-03-14T13:27:04.502Z,545
2018-03-14T13:28:06.126Z,708
2018-03-14T13:29:07.749Z,731
2018-03-14T13:30:09.367Z,714
2018-03-14T13:31:10.990Z,691
2018-03-14T13:32:12.607Z,680
2018-03-14T13:33:14.232Z,708
2018-03-14T13:34:15.929Z,450
2018-03-14T13:35:17.551Z,410
2018-03-14T13:36:19.177Z,675
2018-03-14T13:37:20.796Z,675
2018-03-14T13:38:22.412Z,652
2018-03-14T13:39:24.036Z,601
2018-03-14T13:40:25.655Z,551
2018-03-14T13:41:27.281Z,585
2018-03-14T13:42:28.904Z,601
2018-03-14T13:43:30.538Z,624
2018-03-14T13:44:32.152Z,618
2018-03-14T13:45:33.776Z,630
2018-03-14T13:46:35.400Z,630
2018-03-14T13:47:37.016Z,506
2018-03-14T13:48:38.637Z,641
2018-03-14T13:49:40.265Z,646
2018-03-14T13:50:41.884Z,641
2018-03-14T13:51:43.501Z,630
2018-03-14T13:52:45.117Z,630
2018-03-14T13:53:46.743Z,630
2018-03-14T13:54:48.367Z,624
2018-03-14T13:55:49.983Z,630
2018-03-14T13:56:51.603Z,630
2018-03-14T13:57:53.224Z,624
2018-03-14T13:58:54.842Z,596
2018-03-14T13:59:56.463Z,585
2018-03-14T14:00:58.078Z,601
2018-03-14T14:01:59.702Z,618
2018-03-14T14:03:01.328Z,624
2018-03-14T14:04:02.944Z,618
2018-03-14T14:05:04.560Z,613
2018-03-14T14:06:06.184Z,613
2018-03-14T14:07:07.807Z,613
2018-03-14T14:08:09.422Z,618
2018-03-14T14:09:11.040Z,618
2018-03-14T14:10:12.667Z,613
2018-03-14T14:11:14.291Z,607
2018-03-14T14:12:15.909Z,596
2018-03-14T14:13:17.593Z,579
2018-03-14T14:14:19.154Z,579
2018-03-14T14:15:20.772Z,590
2018-03-14T14:16:22.393Z,601
2018-03-14T14:17:24.017Z,590
2018-03-14T14:18:25.634Z,590
2018-03-14T14:19:27.258Z,585
2018-03-14T14:20:28.870Z,601
2018-03-14T14:21:30.488Z,607
2018-03-14T14:22:32.109Z,607
2018-03-14T14:23:33.731Z,607
2018-03-14T14:24:35.351Z,596
2018-03-14T14:25:36.990Z,596
2018-03-14T14:26:38.592Z,590
2018-03-14T14:27:40.222Z,590
2018-03-14T14:28:41.833Z,585
2018-03-14T14:29:43.459Z,590
2018-03-14T14:30:45.075Z,590
2018-03-14T14:31:46.695Z,596
2018-03-14T14:32:48.321Z,590
2018-03-14T14:33:49.936Z,585
2018-03-14T14:34:51.560Z,590
2018-03-14T14:35:53.175Z,596
2018-03-14T14:36:54.800Z,596
2018-03-14T14:37:56.419Z,596
2018-03-14T14:38:58.042Z,596
2018-03-14T14:39:59.665Z,596
2018-03-14T14:41:01.281Z,590
2018-03-14T14:42:02.905Z,590
2018-03-14T14:43:04.520Z,585
2018-03-14T14:44:06.141Z,585
2018-03-14T14:45:07.761Z,585
2018-03-14T14:46:09.385Z,573
2018-03-14T14:47:11.003Z,568
2018-03-14T14:48:13.287Z,568
2018-03-14T14:49:14.188Z,562
2018-03-14T14:50:15.808Z,568
2018-03-14T14:51:18.110Z,568
2018-03-14T14:52:19.730Z,562
2018-03-14T14:53:21.348Z,562
2018-03-14T14:54:22.971Z,556
2018-03-14T14:55:24.593Z,568
2018-03-14T14:56:26.209Z,568
2018-03-14T14:57:27.830Z,579
2018-03-14T14:58:29.448Z,568
2018-03-14T14:59:31.075Z,573
2018-03-14T15:00:32.694Z,562
2018-03-14T15:01:34.320Z,556
2018-03-14T15:02:35.934Z,551
2018-03-14T15:03:37.556Z,540
2018-03-14T15:04:39.177Z,534
2018-03-14T15:05:40.796Z,528
2018-03-14T15:06:42.418Z,534
2018-03-14T15:07:44.041Z,528
2018-03-14T15:08:45.667Z,534
2018-03-14T15:09:47.279Z,540
2018-03-14T15:10:48.902Z,534
2018-03-14T15:11:50.523Z,540
2018-03-14T15:12:52.140Z,534
2018-03-14T15:13:53.766Z,528
2018-03-14T15:14:55.391Z,523
2018-03-14T15:15:57.010Z,506
2018-03-14T15:16:58.626Z,495
2018-03-14T15:18:00.253Z,483
2018-03-14T15:19:01.905Z,478
2018-03-14T15:20:03.491Z,478
2018-03-14T15:21:05.180Z,472
2018-03-14T15:22:06.734Z,466
2018-03-14T15:23:08.360Z,461
2018-03-14T15:24:09.974Z,455
2018-03-14T15:25:11.594Z,455
2018-03-14T15:26:13.211Z,444
2018-03-14T15:27:14.836Z,438
2018-03-14T15:28:16.455Z,433
2018-03-14T15:29:18.081Z,433
2018-03-14T15:30:19.698Z,421
2018-03-14T15:31:21.313Z,405
2018-03-14T15:32:22.936Z,388
2018-03-14T15:33:24.570Z,376
2018-03-14T15:34:26.189Z,354
2018-03-14T15:35:27.809Z,337
2018-03-14T15:36:29.462Z,320
2018-03-14T15:37:31.057Z,309
2018-03-14T15:38:32.666Z,303
2018-03-14T15:39:34.290Z,292
2018-03-14T15:40:35.910Z,275
2018-03-14T15:41:37.545Z,264
2018-03-14T15:42:39.166Z,253
2018-03-14T15:43:40.791Z,247
2018-03-14T15:44:42.414Z,247
2018-03-14T15:45:44.030Z,241
2018-03-14T15:46:45.651Z,236
2018-03-14T15:47:47.270Z,236
2018-03-14T15:48:48.886Z,236
2018-03-14T15:49:50.512Z,230
2018-03-14T15:50:52.129Z,225
2018-03-14T15:51:53.754Z,219
2018-03-14T15:52:55.375Z,219
2018-03-14T15:53:56.994Z,196
2018-03-14T15:54:58.613Z,163
2018-03-14T15:56:00.234Z,208
2018-03-14T15:57:01.850Z,208
2018-03-14T15:58:03.469Z,202
2018-03-14T15:59:05.095Z,202
2018-03-14T16:00:06.708Z,202